Time;durP1;ratioP1;P1;durP2;ratioP2;P2;SDS_P1;SDS_P2;PMS_P1;PMS_P2;Temp;Humidity;BMP_temperature;BMP_pressure;BME280_temperature;BME280_humidity;BME280_pressure;Samples;Min_cycle;Max_cycle;Signal;HPM_P1;HPM_P2
2023/07/22 00:00:38;;;;;;;24.73;18.02;;;;;;;14.79;85.50;101277.00;5052658;28;20036;-71
2023/07/22 00:03:03;;;;;;;24.90;16.58;;;;;;;14.79;85.04;101277.84;5052719;28;20021;-72
2023/07/22 00:05:28;;;;;;;24.90;16.23;;;;;;;14.80;85.40;101282.28;5052562;28;20037;-72
2023/07/22 00:07:54;;;;;;;26.20;16.38;;;;;;;14.89;84.81;101284.25;5052591;28;20021;-72
2023/07/22 00:10:19;;;;;;;26.75;16.75;;;;;;;14.94;84.80;101287.72;5052548;28;20025;-71
2023/07/22 00:12:45;;;;;;;25.58;17.08;;;;;;;14.94;84.96;101287.72;5052496;28;20400;-72
2023/07/22 00:15:13;;;;;;;25.80;17.98;;;;;;;14.98;84.55;101283.13;5052492;28;20022;-71
2023/07/22 00:17:41;;;;;;;24.42;17.70;;;;;;;15.04;84.39;101274.63;5052376;28;20041;-70
2023/07/22 00:20:10;;;;;;;24.90;16.95;;;;;;;15.07;84.55;101274.78;5052412;28;20021;-71
2023/07/22 00:22:35;;;;;;;25.42;17.17;;;;;;;15.10;84.37;101284.44;5050754;28;20032;-70
2023/07/22 00:25:01;;;;;;;26.48;17.40;;;;;;;15.10;84.25;101279.72;5052231;28;20021;-71
2023/07/22 00:27:27;;;;;;;26.20;16.58;;;;;;;15.12;84.36;101273.81;5051927;28;20068;-70
2023/07/22 00:29:52;;;;;;;27.80;17.65;;;;;;;15.14;84.40;101274.31;5051188;28;20425;-72
2023/07/22 00:32:17;;;;;;;27.20;17.90;;;;;;;15.15;84.39;101269.53;5052211;28;20025;-71
2023/07/22 00:34:43;;;;;;;27.38;17.85;;;;;;;15.17;84.53;101275.59;5052094;28;20056;-71
2023/07/22 00:37:08;;;;;;;26.50;17.52;;;;;;;15.18;84.96;101272.47;5051926;28;20028;-71
2023/07/22 00:39:34;;;;;;;27.48;18.08;;;;;;;15.19;86.19;101282.50;5051751;28;20029;-70
2023/07/22 00:41:59;;;;;;;27.35;16.67;;;;;;;15.18;86.14;101280.84;5050280;28;20041;-70
2023/07/22 00:44:25;;;;;;;26.10;17.67;;;;;;;15.17;87.11;101282.00;5051657;28;20094;-72
2023/07/22 00:46:55;;;;;;;26.65;18.13;;;;;;;15.15;88.54;101291.81;5051710;28;20040;-70
2023/07/22 00:49:20;;;;;;;26.48;18.23;;;;;;;15.08;90.58;101290.34;5051971;28;20025;-70
2023/07/22 00:51:46;;;;;;;26.25;18.33;;;;;;;15.03;91.33;101281.34;5050747;28;20508;-71
2023/07/22 00:54:11;;;;;;;28.48;18.65;;;;;;;15.00;92.70;101270.84;5051656;28;20392;-72
2023/07/22 00:56:37;;;;;;;27.88;19.00;;;;;;;14.92;93.31;101259.34;5051420;28;20079;-70
2023/07/22 00:59:02;;;;;;;27.80;19.38;;;;;;;14.88;94.35;101263.94;5051421;28;20032;-70
2023/07/22 01:01:27;;;;;;;29.23;19.63;;;;;;;14.83;95.30;101258.53;5051507;28;20166;-72
2023/07/22 01:03:53;;;;;;;29.40;19.50;;;;;;;14.81;95.79;101261.66;5051287;28;20037;-72
2023/07/22 01:06:19;;;;;;;28.00;18.58;;;;;;;14.78;96.18;101270.63;5051345;28;20035;-71
2023/07/22 01:08:46;;;;;;;27.15;18.48;;;;;;;14.74;96.85;101266.84;5051248;28;20067;-71
2023/07/22 01:11:12;;;;;;;27.55;19.05;;;;;;;14.71;97.20;101261.94;5051283;28;20035;-73
2023/07/22 01:13:38;;;;;;;27.30;19.08;;;;;;;14.67;98.07;101255.38;5051318;28;20036;-73
2023/07/22 01:16:05;;;;;;;28.30;18.95;;;;;;;14.60;99.55;101258.59;5051126;28;20036;-73
2023/07/22 01:18:31;;;;;;;28.83;20.83;;;;;;;14.52;100.00;101262.19;5051053;28;20025;-72
2023/07/22 01:20:56;;;;;;;28.20;20.02;;;;;;;14.47;100.00;101257.59;5051025;28;20055;-73
2023/07/22 01:23:22;;;;;;;28.02;20.48;;;;;;;14.41;100.00;101253.31;5051002;28;20029;-72
2023/07/22 01:25:47;;;;;;;28.42;20.00;;;;;;;14.38;100.00;101251.16;5050952;28;20037;-72
2023/07/22 01:28:13;;;;;;;28.92;19.95;;;;;;;14.38;100.00;101253.94;5050976;28;20059;-72
2023/07/22 01:30:39;;;;;;;28.73;20.40;;;;;;;14.31;100.00;101248.84;5050944;28;20116;-72
2023/07/22 01:33:05;;;;;;;27.58;20.25;;;;;;;14.28;100.00;101246.72;5050783;28;20405;-72
2023/07/22 01:35:30;;;;;;;28.13;20.55;;;;;;;14.25;100.00;101246.56;5050851;28;20051;-73
2023/07/22 01:37:55;;;;;;;28.88;19.23;;;;;;;14.25;100.00;101246.56;5049383;28;20036;-72
2023/07/22 01:40:23;;;;;;;27.75;19.88;;;;;;;14.23;100.00;101249.63;5049495;28;20036;-72
2023/07/22 01:42:48;;;;;;;27.27;19.63;;;;;;;14.18;100.00;101242.25;5051035;28;20458;-73
2023/07/22 01:45:14;;;;;;;29.65;20.17;;;;;;;14.13;100.00;101241.56;5050776;28;20025;-73
2023/07/22 01:47:40;;;;;;;28.50;19.58;;;;;;;14.14;100.00;101237.66;5050901;28;20393;-72
2023/07/22 01:50:06;;;;;;;28.70;19.63;;;;;;;14.13;100.00;101244.34;5050781;28;20106;-72
2023/07/22 01:52:32;;;;;;;28.90;20.25;;;;;;;14.10;100.00;101245.00;5050756;28;20033;-73
2023/07/22 01:54:57;;;;;;;27.10;19.88;;;;;;;14.08;100.00;101245.31;5050594;28;20029;-73
2023/07/22 01:57:22;;;;;;;28.55;20.02;;;;;;;14.07;100.00;101234.53;5050494;28;20026;-73
2023/07/22 01:59:48;;;;;;;28.25;21.00;;;;;;;14.06;100.00;101241.22;5050508;28;20104;-72
2023/07/22 02:02:14;;;;;;;28.80;19.70;;;;;;;14.04;100.00;101238.78;5052080;28;20024;-73
2023/07/22 02:04:39;;;;;;;28.55;19.42;;;;;;;14.05;100.00;101243.19;5054578;28;20033;-72
2023/07/22 02:07:05;;;;;;;28.15;20.63;;;;;;;14.07;100.00;101243.69;5054652;28;20044;-72
2023/07/22 02:09:32;;;;;;;27.13;19.85;;;;;;;14.04;100.00;101247.13;5054539;28;20025;-72
2023/07/22 02:11:58;;;;;;;28.65;20.48;;;;;;;14.04;100.00;101242.34;5054739;28;20040;-72
2023/07/22 02:14:23;;;;;;;27.88;20.15;;;;;;;14.00;100.00;101243.31;5054579;28;20420;-73
2023/07/22 02:16:49;;;;;;;28.25;19.52;;;;;;;13.97;100.00;101236.44;5053065;28;20159;-72
2023/07/22 02:19:15;;;;;;;28.75;20.50;;;;;;;13.91;100.00;101234.94;5054382;28;20357;-72
2023/07/22 02:21:40;;;;;;;27.13;19.08;;;;;;;13.91;100.00;101228.53;5054384;28;20421;-72
2023/07/22 02:24:06;;;;;;;27.58;18.92;;;;;;;13.86;100.00;101227.56;5054414;28;20472;-72
2023/07/22 02:26:31;;;;;;;28.02;19.13;;;;;;;13.84;100.00;101232.63;5054393;28;20477;-72
2023/07/22 02:28:56;;;;;;;26.90;19.08;;;;;;;13.83;100.00;101227.38;5054096;28;20101;-72
2023/07/22 02:31:22;;;;;;;29.73;20.42;;;;;;;13.79;100.00;101224.38;5054257;28;20366;-72
2023/07/22 02:33:48;;;;;;;29.27;20.98;;;;;;;13.76;100.00;101219.50;5054461;28;20025;-72
2023/07/22 02:36:13;;;;;;;28.27;21.02;;;;;;;13.77;100.00;101223.06;5054200;28;20040;-72
2023/07/22 02:38:39;;;;;;;29.35;20.38;;;;;;;13.76;100.00;101221.44;5054055;28;20104;-72
2023/07/22 02:41:07;;;;;;;29.90;19.60;;;;;;;13.71;100.00;101219.59;5054221;28;20111;-73
2023/07/22 02:43:33;;;;;;;28.67;19.65;;;;;;;13.65;100.00;101221.69;5053949;28;20503;-72
2023/07/22 02:46:03;;;;;;;29.00;20.17;;;;;;;13.55;100.00;101211.69;5053986;28;20029;-72
2023/07/22 02:48:31;;;;;;;29.63;21.17;;;;;;;13.57;100.00;101212.19;5053957;28;20029;-72
2023/07/22 02:51:03;;;;;;;28.77;19.55;;;;;;;13.51;100.00;101224.56;5052566;28;20386;-72
2023/07/22 02:53:28;;;;;;;29.35;19.80;;;;;;;13.49;100.00;101218.53;5053970;28;20115;-72
2023/07/22 02:55:53;;;;;;;26.65;19.50;;;;;;;13.40;100.00;101214.88;5053890;28;20120;-72
2023/07/22 02:58:18;;;;;;;28.92;20.13;;;;;;;13.36;100.00;101222.16;5053838;28;20053;-72
2023/07/22 03:00:44;;;;;;;29.70;21.40;;;;;;;13.27;100.00;101213.75;5053773;28;20037;-72
2023/07/22 03:03:09;;;;;;;30.15;20.38;;;;;;;13.24;100.00;101215.19;5053837;28;20021;-72
2023/07/22 03:05:35;;;;;;;28.48;20.63;;;;;;;13.23;100.00;101227.44;5053820;28;20028;-72
2023/07/22 03:08:00;;;;;;;29.15;21.33;;;;;;;13.22;100.00;101225.81;5053624;28;20055;-71
2023/07/22 03:10:25;;;;;;;29.08;21.00;;;;;;;13.15;100.00;101219.84;5053647;28;20029;-72
2023/07/22 03:12:55;;;;;;;28.17;20.65;;;;;;;13.12;100.00;101234.41;5053689;28;20058;-72
2023/07/22 03:15:22;;;;;;;28.65;20.73;;;;;;;13.06;100.00;101230.91;5053013;28;20025;-72
2023/07/22 03:17:48;;;;;;;30.20;20.88;;;;;;;13.01;100.00;101225.47;5053573;28;20100;-72
2023/07/22 03:20:17;;;;;;;29.63;22.00;;;;;;;12.98;100.00;101225.28;5053481;28;20028;-72
2023/07/22 03:22:43;;;;;;;30.13;21.23;;;;;;;12.95;100.00;101235.88;5053564;28;20083;-74
2023/07/22 03:25:13;;;;;;;29.30;21.30;;;;;;;12.86;100.00;101234.97;5053457;28;20475;-72
2023/07/22 03:27:39;;;;;;;27.88;21.63;;;;;;;12.88;100.00;101240.22;5053237;28;20107;-72
2023/07/22 03:30:10;;;;;;;30.38;21.23;;;;;;;12.88;100.00;101243.81;5053426;28;20044;-72
2023/07/22 03:32:35;;;;;;;29.60;21.40;;;;;;;12.89;100.00;101247.44;5053258;28;20037;-72
2023/07/22 03:35:01;;;;;;;28.25;21.05;;;;;;;12.86;100.00;101243.28;5052986;28;20092;-72
2023/07/22 03:37:27;;;;;;;29.58;21.15;;;;;;;12.83;100.00;101245.88;5052937;28;20090;-72
2023/07/22 03:39:52;;;;;;;30.65;21.45;;;;;;;12.82;100.00;101252.56;5053055;28;20032;-72
2023/07/22 03:42:18;;;;;;;31.60;21.30;;;;;;;12.78;100.00;101246.81;5051551;28;20029;-72
2023/07/22 03:44:43;;;;;;;31.60;22.60;;;;;;;12.76;100.00;101247.13;5052795;28;20056;-74
2023/07/22 03:47:08;;;;;;;30.67;21.52;;;;;;;12.74;100.00;101234.69;5052703;28;20019;-72
2023/07/22 03:49:34;;;;;;;28.95;21.60;;;;;;;12.69;100.00;101238.41;5052515;28;20519;-72
2023/07/22 03:51:59;;;;;;;29.48;20.83;;;;;;;12.70;100.00;101245.59;5051352;28;20028;-72
2023/07/22 03:54:24;;;;;;;29.50;20.08;;;;;;;12.69;100.00;101246.75;5052660;28;20044;-73
2023/07/22 03:56:50;;;;;;;29.23;20.38;;;;;;;12.70;100.00;101242.84;5051121;28;20048;-72
2023/07/22 03:59:15;;;;;;;30.23;21.35;;;;;;;12.66;100.00;101238.22;5052467;28;20032;-72
2023/07/22 04:01:40;;;;;;;28.40;20.00;;;;;;;12.63;100.00;101245.19;5052807;28;20021;-73
2023/07/22 04:04:06;;;;;;;28.67;19.33;;;;;;;12.64;100.00;101247.66;5052541;28;20116;-73
2023/07/22 04:06:31;;;;;;;28.42;19.67;;;;;;;12.62;100.00;101247.16;5051173;28;20111;-73
2023/07/22 04:08:56;;;;;;;29.20;19.27;;;;;;;12.64;100.00;101244.06;5052584;28;20082;-72
2023/07/22 04:11:22;;;;;;;29.30;19.38;;;;;;;12.65;100.00;101245.69;5052598;28;20037;-72
2023/07/22 04:13:48;;;;;;;27.83;18.83;;;;;;;12.66;100.00;101239.03;5052478;28;20495;-72
2023/07/22 04:16:14;;;;;;;29.60;19.48;;;;;;;12.67;100.00;101242.59;5051027;28;20068;-72
2023/07/22 04:18:39;;;;;;;30.30;19.42;;;;;;;12.66;100.00;101247.34;5052253;28;20067;-72
2023/07/22 04:21:04;;;;;;;28.80;19.45;;;;;;;12.68;100.00;101250.66;5052333;28;20469;-71
2023/07/22 04:23:32;;;;;;;28.60;18.10;;;;;;;12.67;100.00;101243.44;5052370;28;20082;-72
2023/07/22 04:25:58;;;;;;;27.88;18.52;;;;;;;12.66;100.00;101254.88;5052171;28;20041;-72
2023/07/22 04:28:23;;;;;;;30.73;19.05;;;;;;;12.65;100.00;101251.25;5052196;28;20194;-72
2023/07/22 04:30:57;;;;;;;28.30;18.77;;;;;;;12.67;100.00;101242.59;5052091;28;20017;-73
2023/07/22 04:33:23;;;;;;;28.88;19.17;;;;;;;12.71;100.00;101252.78;5050620;28;20396;-72
2023/07/22 04:35:49;;;;;;;28.98;18.73;;;;;;;12.70;100.00;101245.59;5052011;28;20099;-73
2023/07/22 04:38:14;;;;;;;29.20;19.20;;;;;;;12.66;100.00;101246.53;5052116;28;20040;-73
2023/07/22 04:40:43;;;;;;;28.75;19.33;;;;;;;12.71;100.00;101247.22;5052004;28;20112;-72
2023/07/22 04:43:08;;;;;;;29.55;18.98;;;;;;;12.78;100.00;101255.97;5052036;28;20132;-74
2023/07/22 04:45:34;;;;;;;28.23;18.65;;;;;;;12.79;100.00;101252.06;5051904;28;20108;-72
2023/07/22 04:47:59;;;;;;;27.08;18.30;;;;;;;12.83;100.00;101256.97;5051695;28;20041;-72
2023/07/22 04:50:25;;;;;;;27.08;18.27;;;;;;;12.92;100.00;101247.63;5051553;28;20027;-72
2023/07/22 04:52:50;;;;;;;28.85;18.23;;;;;;;12.98;100.00;101253.88;5051707;28;20081;-72
2023/07/22 04:55:16;;;;;;;27.92;18.20;;;;;;;13.02;100.00;101241.00;5051664;28;20473;-72
2023/07/22 04:57:42;;;;;;;29.67;18.35;;;;;;;13.10;100.00;101250.53;5051542;28;20541;-72
2023/07/22 05:00:18;;;;;;;28.42;19.33;;;;;;;13.20;100.00;101255.03;5051695;28;20025;-73
2023/07/22 05:02:44;;;;;;;29.50;18.88;;;;;;;13.23;100.00;101263.56;5051973;28;20032;-71
2023/07/22 05:05:09;;;;;;;27.42;18.58;;;;;;;13.30;100.00;101257.56;5051576;28;20032;-73
2023/07/22 05:07:35;;;;;;;27.48;18.40;;;;;;;13.32;100.00;101255.31;5051578;28;20043;-72
2023/07/22 05:10:00;;;;;;;27.50;17.70;;;;;;;13.34;100.00;101253.03;5051472;28;20029;-72
2023/07/22 05:12:26;;;;;;;29.13;18.30;;;;;;;13.35;100.00;101268.56;5051250;28;20483;-73
2023/07/22 05:14:51;;;;;;;29.00;19.10;;;;;;;13.37;100.00;101260.72;5051298;28;20334;-72
2023/07/22 05:17:16;;;;;;;28.63;18.77;;;;;;;13.43;100.00;101272.56;5051051;28;20032;-73
2023/07/22 05:19:43;;;;;;;26.90;17.45;;;;;;;13.43;100.00;101269.78;5051445;28;20096;-73
2023/07/22 05:22:08;;;;;;;28.77;18.23;;;;;;;13.48;100.00;101257.72;5051170;28;20028;-72
2023/07/22 05:24:34;;;;;;;28.98;18.63;;;;;;;13.57;100.00;101255.81;5051355;28;20385;-71
2023/07/22 05:26:59;;;;;;;28.45;18.10;;;;;;;13.66;100.00;101258.69;5049758;28;20065;-72
2023/07/22 05:29:24;;;;;;;30.17;19.13;;;;;;;13.70;100.00;101254.09;5050949;28;20179;-72
2023/07/22 05:31:50;;;;;;;27.65;18.67;;;;;;;13.82;100.00;101253.53;5049647;28;20057;-72
2023/07/22 05:34:15;;;;;;;27.42;18.30;;;;;;;13.93;100.00;101254.09;5051007;28;20111;-72
2023/07/22 05:36:40;;;;;;;27.27;17.58;;;;;;;14.02;100.00;101257.72;5050448;28;20377;-72
2023/07/22 05:39:06;;;;;;;27.30;18.05;;;;;;;14.12;100.00;101267.78;5050760;28;20025;-72
2023/07/22 05:41:35;;;;;;;27.05;17.88;;;;;;;14.19;100.00;101259.78;5051020;28;20384;-71
2023/07/22 05:44:00;;;;;;;30.02;17.70;;;;;;;14.28;100.00;101259.81;5050850;28;20393;-72
2023/07/22 05:46:25;;;;;;;29.42;18.80;;;;;;;14.38;100.00;101262.31;5050956;28;20029;-72
2023/07/22 05:48:51;;;;;;;26.98;18.00;;;;;;;14.48;100.00;101261.19;5050763;28;20033;-72
2023/07/22 05:51:17;;;;;;;26.95;18.13;;;;;;;14.56;99.94;101265.97;5050702;28;20025;-71
2023/07/22 05:53:43;;;;;;;28.83;18.02;;;;;;;14.74;100.00;101258.50;5050721;28;20032;-71
2023/07/22 05:56:08;;;;;;;28.25;17.88;;;;;;;14.92;98.86;101248.22;5050838;28;20024;-72
2023/07/22 05:58:34;;;;;;;28.92;18.45;;;;;;;14.99;98.94;101244.94;5050763;28;20044;-72
2023/07/22 06:00:59;;;;;;;27.08;18.60;;;;;;;15.05;98.08;101251.19;5050832;28;20056;-73
2023/07/22 06:03:25;;;;;;;27.42;17.98;;;;;;;15.12;98.09;101254.28;5050713;28;20029;-72
2023/07/22 06:05:50;;;;;;;29.10;18.52;;;;;;;15.15;98.36;101247.25;5050452;28;20393;-72
2023/07/22 06:08:15;;;;;;;27.08;18.15;;;;;;;15.27;97.25;101255.78;5050754;28;20028;-71
2023/07/22 06:10:42;;;;;;;27.85;18.00;;;;;;;15.34;97.13;101249.72;5050478;28;20491;-72
2023/07/22 06:13:07;;;;;;;27.33;17.95;;;;;;;15.44;96.71;101252.97;5048970;28;20021;-72
2023/07/22 06:15:33;;;;;;;29.05;18.50;;;;;;;15.48;96.63;101243.97;5050424;28;20070;-72
2023/07/22 06:17:59;;;;;;;29.55;19.27;;;;;;;15.48;95.09;101241.16;5050474;28;20381;-73
2023/07/22 06:20:25;;;;;;;28.85;19.73;;;;;;;15.47;96.31;101239.53;5049055;28;20107;-71
2023/07/22 06:22:51;;;;;;;28.65;19.45;;;;;;;15.55;96.48;101252.63;5050482;28;20029;-70
2023/07/22 06:25:16;;;;;;;30.27;19.67;;;;;;;15.72;96.74;101251.78;5050365;28;20036;-72
2023/07/22 06:27:41;;;;;;;29.25;19.20;;;;;;;15.87;96.34;101245.69;5050225;28;20553;-71
2023/07/22 06:30:07;;;;;;;28.33;19.15;;;;;;;15.97;93.88;101233.34;5050409;28;20028;-70
2023/07/22 06:32:34;;;;;;;29.33;19.73;;;;;;;15.99;93.98;101245.00;5050365;28;20428;-72
2023/07/22 06:34:59;;;;;;;27.98;19.52;;;;;;;16.01;93.66;101241.91;5050273;28;20041;-71
2023/07/22 06:37:25;;;;;;;29.17;19.50;;;;;;;16.00;93.98;101241.06;5050690;28;20044;-72
2023/07/22 06:39:51;;;;;;;29.33;19.65;;;;;;;16.04;94.71;101242.03;5050282;28;20053;-71
2023/07/22 06:42:16;;;;;;;30.55;20.50;;;;;;;16.12;93.71;101240.34;5050125;28;20351;-71
2023/07/22 06:44:43;;;;;;;29.42;19.75;;;;;;;16.19;94.89;101237.88;5050414;28;20396;-71
2023/07/22 06:47:08;;;;;;;28.60;19.08;;;;;;;16.16;94.56;101235.75;5050420;28;20033;-71
2023/07/22 06:49:33;;;;;;;28.48;18.85;;;;;;;16.19;94.86;101229.50;5052644;28;20025;-73
2023/07/22 06:51:59;;;;;;;30.33;20.50;;;;;;;16.24;95.12;101236.88;5052518;28;20040;-71
2023/07/22 06:54:24;;;;;;;27.80;18.85;;;;;;;16.32;95.13;101230.44;5054157;28;20380;-72
2023/07/22 06:56:49;;;;;;;28.98;19.45;;;;;;;16.33;94.24;101228.44;5053846;28;20098;-73
2023/07/22 06:59:15;;;;;;;29.30;19.48;;;;;;;16.45;93.48;101219.34;5053681;28;20025;-72
2023/07/22 07:01:41;;;;;;;28.75;20.20;;;;;;;16.60;93.65;101220.72;5053731;28;20056;-72
2023/07/22 07:04:06;;;;;;;30.00;19.95;;;;;;;16.79;93.51;101221.09;5053723;28;20079;-72
2023/07/22 07:06:31;;;;;;;27.63;19.83;;;;;;;16.87;91.50;101221.38;5053729;28;20021;-73
2023/07/22 07:09:00;;;;;;;27.52;19.83;;;;;;;16.93;92.00;101229.25;5053485;28;20036;-71
2023/07/22 07:11:25;;;;;;;29.38;20.15;;;;;;;17.08;92.53;101213.84;5053848;28;20029;-72
2023/07/22 07:13:52;;;;;;;29.25;19.63;;;;;;;17.24;91.60;101224.41;5052017;28;20048;-71
2023/07/22 07:16:29;;;;;;;27.20;19.38;;;;;;;17.21;90.99;101223.09;5053498;28;20182;-72
2023/07/22 07:18:55;;;;;;;30.13;20.05;;;;;;;17.19;90.91;101224.59;5053512;28;20025;-72
2023/07/22 07:21:21;;;;;;;29.10;19.67;;;;;;;17.24;90.90;101228.00;5053568;28;20028;-71
2023/07/22 07:23:47;;;;;;;28.15;19.58;;;;;;;17.27;90.22;101232.09;5052224;28;20029;-71
2023/07/22 07:26:12;;;;;;;28.95;19.33;;;;;;;17.27;89.93;101221.75;5052970;28;20033;-71
2023/07/22 07:28:38;;;;;;;30.27;19.77;;;;;;;17.25;89.63;101221.25;5053154;28;20103;-71
2023/07/22 07:31:03;;;;;;;29.30;19.33;;;;;;;17.20;90.82;101220.66;5053095;28;20063;-71
2023/07/22 07:33:29;;;;;;;28.90;18.58;;;;;;;17.20;90.94;101226.25;5051654;28;20029;-71
2023/07/22 07:35:54;;;;;;;27.92;18.30;;;;;;;17.19;89.68;101219.84;5051608;28;20045;-72
2023/07/22 07:38:19;;;;;;;30.20;19.58;;;;;;;17.16;90.88;101220.53;5052795;28;20017;-71
2023/07/22 07:40:45;;;;;;;28.88;19.15;;;;;;;17.20;90.50;101221.47;5051397;28;20091;-72
2023/07/22 07:43:10;;;;;;;31.40;19.50;;;;;;;17.28;91.51;101223.38;5051460;28;20495;-72
2023/07/22 07:45:38;;;;;;;29.60;19.10;;;;;;;17.34;91.73;101223.16;5052910;28;20035;-71
2023/07/22 07:48:05;;;;;;;29.73;19.55;;;;;;;17.44;90.91;101220.75;5052939;28;20032;-72
2023/07/22 07:50:30;;;;;;;29.40;18.92;;;;;;;17.52;91.17;101232.22;5052718;28;20120;-71
2023/07/22 07:52:56;;;;;;;28.98;19.45;;;;;;;17.54;88.60;101230.69;5052639;28;20477;-71
2023/07/22 07:55:21;;;;;;;28.15;20.02;;;;;;;17.54;89.13;101229.88;5052489;28;20090;-71
2023/07/22 07:57:46;;;;;;;27.85;19.73;;;;;;;17.58;89.28;101230.81;5052475;28;20021;-71
2023/07/22 08:00:12;;;;;;;27.45;18.73;;;;;;;17.64;88.55;101228.63;5052124;28;20105;-72
2023/07/22 08:02:37;;;;;;;30.20;19.30;;;;;;;17.74;88.53;101229.00;5052485;28;20082;-71
2023/07/22 08:05:03;;;;;;;29.85;18.60;;;;;;;17.88;87.92;101225.88;5052307;28;20111;-72
2023/07/22 08:07:28;;;;;;;28.15;19.58;;;;;;;18.02;86.75;101221.97;5050737;28;20120;-71
2023/07/22 08:09:54;;;;;;;27.75;18.55;;;;;;;18.18;87.33;101225.72;5050937;28;20476;-72
2023/07/22 08:12:19;;;;;;;29.17;18.90;;;;;;;18.33;86.11;101228.97;5052266;28;20029;-71
2023/07/22 08:14:44;;;;;;;30.58;18.13;;;;;;;18.45;84.67;101226.19;5052119;28;20048;-71
2023/07/22 08:17:10;;;;;;;26.88;18.08;;;;;;;18.47;84.26;101234.22;5052169;28;20393;-72
2023/07/22 08:19:36;;;;;;;25.40;17.02;;;;;;;18.51;82.93;101230.38;5050703;28;20541;-71
2023/07/22 08:22:01;;;;;;;27.63;17.13;;;;;;;18.52;81.82;101229.19;5052238;28;20690;-70
2023/07/22 08:24:26;;;;;;;27.95;17.90;;;;;;;18.58;82.42;101228.97;5050967;28;20029;-70
2023/07/22 08:26:52;;;;;;;26.35;17.30;;;;;;;18.69;82.43;101224.53;5052247;28;20578;-71
2023/07/22 08:29:17;;;;;;;24.42;16.77;;;;;;;18.77;81.45;101231.97;5050509;28;20053;-69
2023/07/22 08:31:42;;;;;;;26.23;16.50;;;;;;;18.77;80.07;101234.78;5051892;28;20036;-70
2023/07/22 08:34:08;;;;;;;24.25;15.82;;;;;;;18.70;80.34;101232.56;5051884;28;20021;-70
2023/07/22 08:36:33;;;;;;;24.30;16.27;;;;;;;18.67;79.73;101236.06;5051901;28;20115;-71
2023/07/22 08:38:58;;;;;;;24.30;15.45;;;;;;;18.72;78.33;101235.00;5051693;28;20134;-71
2023/07/22 08:41:25;;;;;;;24.98;15.52;;;;;;;18.79;78.57;101242.84;5051737;28;20075;-71
2023/07/22 08:43:51;;;;;;;24.00;14.57;;;;;;;18.85;76.58;101233.84;5051807;28;20062;-71
2023/07/22 08:46:20;;;;;;;24.65;14.90;;;;;;;19.00;75.94;101243.53;5051609;28;20064;-72
2023/07/22 08:48:48;;;;;;;27.42;15.20;;;;;;;19.14;74.62;101231.91;5051654;28;20507;-70
2023/07/22 08:51:16;;;;;;;24.70;13.95;;;;;;;19.30;73.84;101228.34;5051991;28;20020;-71
2023/07/22 08:53:43;;;;;;;22.73;14.25;;;;;;;19.49;75.01;101231.28;5051563;28;20036;-71
2023/07/22 08:56:10;;;;;;;24.30;14.48;;;;;;;19.94;75.80;101234.09;5051554;28;20056;-72
2023/07/22 08:58:36;;;;;;;22.42;14.23;;;;;;;20.11;72.04;101235.75;5051428;28;20032;-71
2023/07/22 09:01:02;;;;;;;22.83;14.45;;;;;;;20.20;70.37;101227.16;5051378;28;20032;-69
2023/07/22 09:03:28;;;;;;;21.42;12.90;;;;;;;20.12;70.25;101239.41;5051391;28;20025;-70
2023/07/22 09:05:55;;;;;;;22.95;13.40;;;;;;;20.14;69.68;101240.66;5051346;28;20031;-72
2023/07/22 09:08:20;;;;;;;21.83;14.25;;;;;;;20.22;68.98;101233.19;5051297;28;20021;-70
2023/07/22 09:10:46;;;;;;;22.10;13.40;;;;;;;20.29;67.85;101230.59;5051425;28;20095;-70
2023/07/22 09:13:13;;;;;;;22.92;14.30;;;;;;;20.22;68.52;101233.19;5050774;28;20029;-72
2023/07/22 09:15:39;;;;;;;24.67;13.77;;;;;;;20.18;65.67;101243.56;5051098;28;20366;-70
2023/07/22 09:18:05;;;;;;;22.02;13.60;;;;;;;20.17;67.43;101237.09;5051216;28;20032;-70
2023/07/22 09:20:30;;;;;;;20.75;12.73;;;;;;;20.17;66.53;101236.28;5049823;28;20071;-71
2023/07/22 09:22:56;;;;;;;20.90;12.40;;;;;;;20.22;65.83;101231.22;5051023;28;20333;-70
2023/07/22 09:25:26;;;;;;;21.38;12.35;;;;;;;20.19;65.73;101229.13;5051063;28;20021;-69
2023/07/22 09:27:54;;;;;;;20.52;12.05;;;;;;;20.29;64.70;101235.38;5050972;28;20079;-72
2023/07/22 09:30:24;;;;;;;22.05;12.02;;;;;;;20.27;65.18;101233.75;5051034;28;20441;-71
2023/07/22 09:32:50;;;;;;;20.65;12.05;;;;;;;20.27;65.51;101238.56;5050929;28;20503;-70
2023/07/22 09:35:17;;;;;;;21.55;12.45;;;;;;;20.29;65.48;101230.59;5050738;28;20052;-69
2023/07/22 09:37:42;;;;;;;19.80;11.70;;;;;;;20.39;65.40;101221.59;5049300;28;20354;-70
2023/07/22 09:40:23;;;;;;;21.65;12.02;;;;;;;20.66;66.50;101226.63;5050617;28;20138;-70
2023/07/22 09:42:53;;;;;;;20.67;12.40;;;;;;;20.68;65.10;101222.28;5050786;28;20033;-71
2023/07/22 09:45:21;;;;;;;19.30;11.40;;;;;;;20.67;62.95;101214.19;5050595;28;20032;-72
2023/07/22 09:47:48;;;;;;;20.65;12.45;;;;;;;20.69;63.07;101211.84;5049332;28;20029;-71
2023/07/22 09:50:15;;;;;;;20.85;12.30;;;;;;;20.81;63.11;101220.19;5049301;28;20021;-71
2023/07/22 09:52:47;;;;;;;21.05;11.88;;;;;;;20.87;63.03;101217.91;5050715;28;20025;-70
2023/07/22 09:55:15;;;;;;;20.50;12.00;;;;;;;20.88;65.02;101213.88;5050683;28;20036;-72
2023/07/22 09:57:45;;;;;;;21.52;12.10;;;;;;;21.06;63.89;101216.28;5049197;28;20025;-69
2023/07/22 10:00:15;;;;;;;21.85;12.23;;;;;;;21.12;62.67;101218.41;5050590;28;20029;-69
2023/07/22 10:02:45;;;;;;;21.50;12.63;;;;;;;21.09;63.07;101218.34;5050531;28;20044;-70
2023/07/22 10:05:24;;;;;;;21.38;11.77;;;;;;;21.26;63.45;101215.06;5049751;28;20484;-71
2023/07/22 10:07:56;;;;;;;20.65;11.75;;;;;;;21.31;63.08;101211.16;5050052;28;20087;-70
2023/07/22 10:10:32;;;;;;;21.23;11.90;;;;;;;21.34;62.83;101213.22;5051407;28;20033;-70
2023/07/22 10:12:58;;;;;;;20.20;11.50;;;;;;;21.19;62.61;101212.13;5051462;28;20439;-71
2023/07/22 10:15:29;;;;;;;21.52;12.18;;;;;;;21.02;63.31;101219.81;5051377;28;20036;-72
2023/07/22 10:17:55;;;;;;;20.50;11.85;;;;;;;20.93;62.94;101218.41;5051016;28;20025;-71
2023/07/22 10:20:22;;;;;;;19.75;11.82;;;;;;;20.76;64.33;101222.47;5050822;28;20095;-73
2023/07/22 10:22:47;;;;;;;21.35;11.98;;;;;;;20.67;65.27;101217.84;5049671;28;20033;-69
2023/07/22 10:25:19;;;;;;;20.17;11.13;;;;;;;20.63;66.18;101211.31;5054279;28;20028;-69
2023/07/22 10:27:46;;;;;;;20.08;11.05;;;;;;;20.83;66.62;101219.81;5054010;28;20555;-69
2023/07/22 10:30:12;;;;;;;20.73;11.65;;;;;;;21.17;66.24;101218.13;5054089;28;20460;-71
2023/07/22 10:32:40;;;;;;;18.90;11.30;;;;;;;21.36;63.07;101216.50;5053995;28;20069;-70
2023/07/22 10:35:10;;;;;;;21.38;10.88;;;;;;;21.52;62.28;101216.41;5054023;28;20037;-72
2023/07/22 10:37:37;;;;;;;18.85;10.05;;;;;;;21.59;60.93;101225.00;5053684;28;20040;-70
2023/07/22 10:40:19;;;;;;;19.33;10.65;;;;;;;21.68;60.45;101221.13;5053768;28;20036;-69
2023/07/22 10:42:58;;;;;;;19.25;10.27;;;;;;;21.70;60.11;101213.94;5053678;28;20378;-70
2023/07/22 10:45:28;;;;;;;18.02;10.68;;;;;;;21.69;58.03;101214.31;5053930;28;20167;-70
2023/07/22 10:48:05;;;;;;;21.25;10.80;;;;;;;21.60;59.21;101208.91;5053873;28;20036;-71
2023/07/22 10:50:51;;;;;;;20.00;10.23;;;;;;;21.66;60.33;101194.16;5053886;28;20039;-69
2023/07/22 10:53:26;;;;;;;18.85;10.00;;;;;;;21.70;59.51;101202.69;5053770;28;20104;-70
2023/07/22 10:56:09;;;;;;;18.55;9.50;;;;;;;21.88;59.06;101203.00;5053633;28;20029;-69
2023/07/22 10:58:46;;;;;;;17.10;10.23;;;;;;;21.89;57.92;101201.00;5053591;28;20032;-70
2023/07/22 11:01:29;;;;;;;18.27;10.10;;;;;;;21.89;58.35;101206.63;5053531;28;20033;-71
2023/07/22 11:04:13;;;;;;;17.15;10.20;;;;;;;21.68;55.97;101212.69;5053523;28;20539;-70